Time;durP1;ratioP1;P1;durP2;ratioP2;P2;SDS_P1;SDS_P2;PMS_P1;PMS_P2;Temp;Humidity;BMP_temperature;BMP_pressure;BME280_temperature;BME280_humidity;BME280_pressure;Samples;Min_cycle;Max_cycle;Signal;HPM_P1;HPM_P2
2022/07/11 00:01:34;;;;;;;0.15;0.15;;;17.10;99.90;;;;;;5087818;28;20070;-69
2022/07/11 00:04:00;;;;;;;0.00;0.00;;;17.10;99.90;;;;;;5059194;28;20079;-68
2022/07/11 00:06:26;;;;;;;0.05;0.05;;;17.00;99.90;;;;;;5071216;28;20124;-69
2022/07/11 00:08:51;;;;;;;0.00;0.00;;;17.00;99.90;;;;;;5084369;28;20384;-69
2022/07/11 00:11:17;;;;;;;0.00;0.00;;;17.00;99.90;;;;;;5045997;28;20057;-69
2022/07/11 00:13:42;;;;;;;0.05;0.05;;;17.00;99.90;;;;;;5049022;28;20053;-68
2022/07/11 00:16:08;;;;;;;0.35;0.35;;;16.90;99.90;;;;;;5076840;28;20044;-69
2022/07/11 00:18:33;;;;;;;0.10;0.10;;;17.00;99.90;;;;;;5071847;28;20124;-69
2022/07/11 00:20:59;;;;;;;0.10;0.10;;;17.00;99.90;;;;;;5071172;28;20052;-69
2022/07/11 00:23:25;;;;;;;0.00;0.00;;;17.00;99.90;;;;;;5063211;28;20105;-69
2022/07/11 00:25:51;;;;;;;0.10;0.10;;;17.00;99.90;;;;;;5069208;28;20487;-69
2022/07/11 00:28:16;;;;;;;0.10;0.10;;;17.00;99.90;;;;;;5071654;28;20086;-69
2022/07/11 00:30:42;;;;;;;0.20;0.20;;;17.00;99.90;;;;;;5082459;28;20082;-69
2022/07/11 00:33:07;;;;;;;0.13;0.13;;;17.00;99.90;;;;;;5075561;28;20054;-69
2022/07/11 00:35:33;;;;;;;0.20;0.20;;;17.00;99.90;;;;;;5065514;28;20036;-69
2022/07/11 00:37:58;;;;;;;0.00;0.00;;;17.00;99.90;;;;;;5058164;28;20392;-69
2022/07/11 00:40:24;;;;;;;0.00;0.00;;;17.00;99.90;;;;;;5063016;28;20045;-68
2022/07/11 00:42:50;;;;;;;0.00;0.00;;;17.00;99.90;;;;;;5055910;28;20139;-69
2022/07/11 00:45:15;;;;;;;0.00;0.00;;;17.00;99.90;;;;;;5069641;28;20044;-69
2022/07/11 00:47:41;;;;;;;0.00;0.00;;;17.00;99.90;;;;;;5070071;28;20045;-68
2022/07/11 00:50:07;;;;;;;0.00;0.00;;;17.00;99.90;;;;;;5071256;28;20067;-68
2022/07/11 00:52:34;;;;;;;0.00;0.00;;;17.00;99.90;;;;;;5071393;28;20416;-69
2022/07/11 00:55:00;;;;;;;0.10;0.10;;;17.00;99.90;;;;;;5046847;28;20553;-68
2022/07/11 00:57:26;;;;;;;0.10;0.10;;;16.90;99.90;;;;;;5074728;28;20055;-68
2022/07/11 00:59:52;;;;;;;0.10;0.10;;;16.90;99.90;;;;;;5052901;28;20412;-69
2022/07/11 01:02:18;;;;;;;0.00;0.00;;;16.90;99.90;;;;;;5064346;28;20778;-68
2022/07/11 01:04:44;;;;;;;0.08;0.08;;;16.90;99.90;;;;;;5055180;28;20059;-68
2022/07/11 01:07:09;;;;;;;0.00;0.00;;;16.90;99.90;;;;;;5064669;28;20040;-68
2022/07/11 01:09:35;;;;;;;0.00;0.00;;;16.90;99.90;;;;;;5074621;28;20047;-69
2022/07/11 01:12:01;;;;;;;0.00;0.00;;;16.90;99.90;;;;;;5060950;28;20045;-68
2022/07/11 01:14:26;;;;;;;0.08;0.08;;;16.90;99.90;;;;;;5043226;28;20494;-68
2022/07/11 01:16:52;;;;;;;0.00;0.00;;;16.90;99.90;;;;;;5069622;28;20509;-68
2022/07/11 01:19:18;;;;;;;0.00;0.00;;;16.80;99.90;;;;;;5073684;28;20051;-68
2022/07/11 01:21:49;;;;;;;0.00;0.00;;;16.90;99.90;;;;;;5069538;28;20041;-68
2022/07/11 01:24:14;;;;;;;0.10;0.10;;;16.80;99.90;;;;;;5074434;28;20098;-69
2022/07/11 01:26:40;;;;;;;0.00;0.00;;;16.80;99.90;;;;;;5077199;28;20067;-68
2022/07/11 01:29:13;;;;;;;0.08;0.08;;;16.90;99.90;;;;;;5065109;28;20055;-68
2022/07/11 01:31:43;;;;;;;0.10;0.10;;;16.80;99.90;;;;;;5042251;28;20412;-69
2022/07/11 01:34:09;;;;;;;0.10;0.10;;;16.80;99.90;;;;;;5073634;28;20102;-68
2022/07/11 01:36:34;;;;;;;0.00;0.00;;;16.80;99.90;;;;;;5071383;28;20051;-68
2022/07/11 01:39:00;;;;;;;0.20;0.20;;;16.80;99.90;;;;;;5070631;28;20111;-68
2022/07/11 01:41:26;;;;;;;0.10;0.10;;;16.80;99.90;;;;;;5069529;28;20377;-69
2022/07/11 01:43:52;;;;;;;0.28;0.20;;;16.70;99.90;;;;;;5085148;28;20068;-69
2022/07/11 01:46:19;;;;;;;0.10;0.10;;;16.70;99.90;;;;;;5061512;28;20048;-69
2022/07/11 01:48:45;;;;;;;0.10;0.10;;;16.70;99.90;;;;;;5071299;28;20173;-69
2022/07/11 01:51:11;;;;;;;0.00;0.00;;;16.70;99.90;;;;;;5044594;28;20510;-69
2022/07/11 01:53:36;;;;;;;0.00;0.00;;;16.70;99.90;;;;;;5079932;28;20036;-69
2022/07/11 01:56:02;;;;;;;0.00;0.00;;;16.70;99.90;;;;;;5070016;28;20037;-69
2022/07/11 01:58:30;;;;;;;0.00;0.00;;;16.70;99.90;;;;;;5069005;28;20499;-69
2022/07/11 02:00:57;;;;;;;0.10;0.10;;;16.70;99.90;;;;;;5059335;28;20139;-69
2022/07/11 02:03:22;;;;;;;0.00;0.00;;;16.70;99.90;;;;;;5050241;28;20385;-69
2022/07/11 02:05:48;;;;;;;0.00;0.00;;;16.70;99.90;;;;;;5052895;28;20085;-69
2022/07/11 02:08:13;;;;;;;0.00;0.00;;;16.70;99.90;;;;;;5083652;28;20093;-69
2022/07/11 02:10:44;;;;;;;0.00;0.00;;;16.70;99.90;;;;;;5069119;28;20052;-69
2022/07/11 02:13:15;;;;;;;0.00;0.00;;;16.70;99.90;;;;;;5064570;28;20040;-69
2022/07/11 02:15:42;;;;;;;0.32;0.30;;;16.70;99.90;;;;;;5073399;28;20079;-69
2022/07/11 02:18:08;;;;;;;0.00;0.00;;;16.70;99.90;;;;;;5074030;28;20036;-69
2022/07/11 02:20:34;;;;;;;0.13;0.13;;;16.70;99.90;;;;;;5059996;28;20138;-69
2022/07/11 02:23:00;;;;;;;0.00;0.00;;;16.70;99.90;;;;;;5067184;28;20071;-69
2022/07/11 02:25:27;;;;;;;0.00;0.00;;;16.60;99.90;;;;;;5069428;28;20040;-69
2022/07/11 02:27:53;;;;;;;0.15;0.15;;;16.60;99.90;;;;;;5082805;28;20051;-69
2022/07/11 02:30:18;;;;;;;0.00;0.00;;;16.70;99.90;;;;;;5053669;28;20040;-69
2022/07/11 02:32:44;;;;;;;2.42;0.88;;;16.70;99.90;;;;;;5065605;28;20059;-69
2022/07/11 02:35:09;;;;;;;0.10;0.10;;;16.70;99.90;;;;;;5068710;28;20041;-69
2022/07/11 02:37:35;;;;;;;0.00;0.00;;;16.70;99.90;;;;;;5050449;28;20044;-69
2022/07/11 02:40:01;;;;;;;0.00;0.00;;;16.70;99.90;;;;;;5087719;28;20044;-69
2022/07/11 02:42:26;;;;;;;0.00;0.00;;;16.70;99.90;;;;;;5034312;28;20524;-69
2022/07/11 02:44:52;;;;;;;0.10;0.10;;;16.70;99.90;;;;;;5050213;28;20052;-69
2022/07/11 02:47:18;;;;;;;0.32;0.32;;;16.70;99.90;;;;;;5062767;28;20040;-69
2022/07/11 02:49:43;;;;;;;0.10;0.10;;;16.60;99.90;;;;;;5066902;28;20130;-68
2022/07/11 02:52:10;;;;;;;0.00;0.00;;;16.70;99.90;;;;;;5074593;28;20377;-69
2022/07/11 02:54:36;;;;;;;0.10;0.10;;;16.70;99.90;;;;;;5050111;28;20056;-69
2022/07/11 02:57:02;;;;;;;0.00;0.00;;;16.60;99.90;;;;;;5056679;28;20041;-68
2022/07/11 02:59:27;;;;;;;0.00;0.00;;;16.70;99.90;;;;;;5071231;28;20043;-69
2022/07/11 03:01:54;;;;;;;0.00;0.00;;;16.70;99.90;;;;;;5039353;28;20495;-69
2022/07/11 03:04:19;;;;;;;0.00;0.00;;;16.70;99.90;;;;;;5031843;28;20061;-68
2022/07/11 03:06:45;;;;;;;0.10;0.10;;;16.70;99.90;;;;;;5051658;28;20044;-69
2022/07/11 03:09:11;;;;;;;0.10;0.10;;;16.70;99.90;;;;;;5054798;28;20106;-69
2022/07/11 03:11:36;;;;;;;0.00;0.00;;;16.70;99.90;;;;;;5046266;28;20041;-69
2022/07/11 03:14:02;;;;;;;0.00;0.00;;;16.70;99.90;;;;;;5034433;28;20535;-69
2022/07/11 03:16:28;;;;;;;0.00;0.00;;;16.70;99.90;;;;;;5076606;28;20044;-69
2022/07/11 03:18:54;;;;;;;0.00;0.00;;;16.70;99.90;;;;;;5069091;28;20110;-69
2022/07/11 03:21:20;;;;;;;0.05;0.05;;;16.70;99.90;;;;;;5082696;28;20040;-69
2022/07/11 03:23:45;;;;;;;0.00;0.00;;;16.70;99.90;;;;;;5067016;28;20040;-69
2022/07/11 03:26:11;;;;;;;0.03;0.03;;;16.60;99.90;;;;;;5068899;28;20048;-69
2022/07/11 03:28:37;;;;;;;3.10;0.28;;;16.60;99.90;;;;;;5065066;28;20055;-69
2022/07/11 03:31:03;;;;;;;0.10;0.10;;;16.60;99.90;;;;;;5081724;28;20365;-69
2022/07/11 03:33:29;;;;;;;0.10;0.10;;;16.60;99.90;;;;;;5067700;28;20750;-68
2022/07/11 03:35:54;;;;;;;0.20;0.20;;;16.60;99.90;;;;;;5083936;28;20047;-69
2022/07/11 03:38:20;;;;;;;0.00;0.00;;;16.60;99.90;;;;;;5059710;28;20095;-69
2022/07/11 03:40:47;;;;;;;0.00;0.00;;;16.60;99.90;;;;;;5049630;28;20404;-69
2022/07/11 03:43:14;;;;;;;0.00;0.00;;;16.60;99.90;;;;;;5051989;28;20055;-69
2022/07/11 03:45:39;;;;;;;0.00;0.00;;;16.60;99.90;;;;;;5078426;28;20149;-69
2022/07/11 03:48:06;;;;;;;0.10;0.10;;;16.60;99.90;;;;;;5050605;28;20127;-69
2022/07/11 03:50:33;;;;;;;0.03;0.03;;;16.60;99.90;;;;;;5080094;28;20045;-69
2022/07/11 03:52:58;;;;;;;0.00;0.00;;;16.60;99.90;;;;;;5064921;28;20059;-69
2022/07/11 03:55:24;;;;;;;0.00;0.00;;;16.50;99.90;;;;;;5038332;28;20112;-68
2022/07/11 03:57:50;;;;;;;0.00;0.00;;;16.50;99.90;;;;;;5071887;28;20445;-68
2022/07/11 04:00:16;;;;;;;0.10;0.10;;;16.50;99.90;;;;;;5068306;28;20060;-68
2022/07/11 04:02:42;;;;;;;0.00;0.00;;;16.50;99.90;;;;;;5077738;28;20056;-68
2022/07/11 04:05:08;;;;;;;0.20;0.20;;;16.50;99.90;;;;;;5071916;28;20052;-69
2022/07/11 04:07:33;;;;;;;0.00;0.00;;;16.50;99.90;;;;;;5070910;28;20117;-69
2022/07/11 04:09:59;;;;;;;0.10;0.10;;;16.50;99.90;;;;;;5086753;28;20050;-69
2022/07/11 04:12:25;;;;;;;0.00;0.00;;;16.60;99.90;;;;;;5036315;28;20479;-69
2022/07/11 04:14:50;;;;;;;0.00;0.00;;;16.50;99.90;;;;;;5075367;28;20055;-69
2022/07/11 04:17:16;;;;;;;0.00;0.00;;;16.50;99.90;;;;;;5054508;28;20038;-68
2022/07/11 04:19:45;;;;;;;0.00;0.00;;;16.60;99.90;;;;;;5051869;28;20048;-69
2022/07/11 04:22:11;;;;;;;0.03;0.03;;;16.60;99.90;;;;;;5057180;28;20045;-68
2022/07/11 04:24:37;;;;;;;0.00;0.00;;;16.60;99.90;;;;;;5069536;28;20041;-69
2022/07/11 04:27:03;;;;;;;0.10;0.10;;;16.60;99.90;;;;;;5072430;28;20504;-69
2022/07/11 04:29:28;;;;;;;0.00;0.00;;;16.60;99.90;;;;;;5076992;28;20086;-68
2022/07/11 04:31:54;;;;;;;0.05;0.05;;;16.50;99.90;;;;;;5087748;28;20047;-68
2022/07/11 04:34:19;;;;;;;0.10;0.10;;;16.50;99.90;;;;;;5076239;28;20044;-69
2022/07/11 04:36:45;;;;;;;0.00;0.00;;;16.50;99.90;;;;;;5058326;28;20041;-68
2022/07/11 04:39:11;;;;;;;0.00;0.00;;;16.50;99.90;;;;;;5044636;28;20049;-68
2022/07/11 04:41:37;;;;;;;0.05;0.05;;;16.50;99.90;;;;;;5068752;28;20055;-68
2022/07/11 04:44:03;;;;;;;0.00;0.00;;;16.50;99.90;;;;;;5088252;28;20055;-68
2022/07/11 04:46:29;;;;;;;0.00;0.00;;;16.50;99.90;;;;;;5077164;28;20182;-67
2022/07/11 04:48:55;;;;;;;0.10;0.10;;;16.50;99.90;;;;;;5050609;28;20130;-68
2022/07/11 04:51:21;;;;;;;0.00;0.00;;;16.50;99.90;;;;;;5076472;28;20048;-68
2022/07/11 04:53:47;;;;;;;0.00;0.00;;;16.50;99.90;;;;;;5070091;28;20048;-67
2022/07/11 04:56:13;;;;;;;0.00;0.00;;;16.50;99.90;;;;;;5086846;28;20169;-67
2022/07/11 04:58:39;;;;;;;0.05;0.05;;;16.50;99.90;;;;;;5072967;28;20523;-68
2022/07/11 05:01:04;;;;;;;0.08;0.08;;;16.60;99.90;;;;;;5061974;28;20052;-68
2022/07/11 05:03:32;;;;;;;0.00;0.00;;;16.60;99.90;;;;;;5069355;28;20186;-67
2022/07/11 05:05:58;;;;;;;0.00;0.00;;;16.60;99.90;;;;;;5082083;28;20068;-68
2022/07/11 05:08:23;;;;;;;0.00;0.00;;;16.60;99.90;;;;;;5076391;28;20051;-67
2022/07/11 05:10:49;;;;;;;0.00;0.00;;;16.60;99.90;;;;;;5052345;28;20048;-67
2022/07/11 05:13:15;;;;;;;0.08;0.08;;;16.70;99.90;;;;;;5052286;28;20465;-67
2022/07/11 05:15:41;;;;;;;0.00;0.00;;;16.60;99.90;;;;;;5081750;28;20036;-67
2022/07/11 05:18:06;;;;;;;2.13;0.63;;;16.60;99.90;;;;;;5069255;28;20040;-68
2022/07/11 05:20:32;;;;;;;0.00;0.00;;;16.60;99.90;;;;;;5065893;28;20040;-68
2022/07/11 05:22:58;;;;;;;0.00;0.00;;;16.60;99.90;;;;;;5085791;28;20047;-68
2022/07/11 05:25:24;;;;;;;0.20;0.20;;;16.70;99.90;;;;;;5054612;28;20484;-68
2022/07/11 05:27:50;;;;;;;0.43;0.43;;;16.70;99.90;;;;;;5051508;28;20117;-68
2022/07/11 05:30:16;;;;;;;0.00;0.00;;;16.70;99.90;;;;;;5082106;28;20464;-68
2022/07/11 05:32:41;;;;;;;0.10;0.10;;;16.70;99.90;;;;;;5056120;28;20075;-68
2022/07/11 05:35:09;;;;;;;0.00;0.00;;;16.80;99.90;;;;;;5065469;28;20120;-68
2022/07/11 05:37:34;;;;;;;0.00;0.00;;;16.80;99.90;;;;;;5085372;28;20055;-68
2022/07/11 05:40:00;;;;;;;0.00;0.00;;;16.90;99.90;;;;;;5051913;28;20040;-68
2022/07/11 05:42:26;;;;;;;0.10;0.10;;;16.80;99.90;;;;;;5041166;28;20566;-68
2022/07/11 05:44:51;;;;;;;0.10;0.10;;;17.00;99.90;;;;;;5057460;28;20456;-68
2022/07/11 05:47:17;;;;;;;2.53;1.25;;;16.90;99.90;;;;;;5085979;28;20056;-68
2022/07/11 05:49:43;;;;;;;5.25;0.55;;;16.80;99.90;;;;;;5055201;28;20045;-68
2022/07/11 05:52:09;;;;;;;0.00;0.00;;;16.90;99.90;;;;;;5055659;28;20160;-69
2022/07/11 05:54:35;;;;;;;0.00;0.00;;;16.80;99.90;;;;;;5067623;28;20119;-68
2022/07/11 05:57:03;;;;;;;0.00;0.00;;;16.80;99.90;;;;;;5074128;28;20040;-69
2022/07/11 05:59:29;;;;;;;0.10;0.10;;;16.80;99.90;;;;;;5065064;28;20051;-69
2022/07/11 06:01:55;;;;;;;0.00;0.00;;;16.80;99.90;;;;;;5044250;28;20552;-69
2022/07/11 06:04:21;;;;;;;0.00;0.00;;;16.90;99.90;;;;;;5057514;28;20497;-68
2022/07/11 06:06:47;;;;;;;0.05;0.05;;;16.90;99.90;;;;;;5088941;28;20071;-68
2022/07/11 06:09:13;;;;;;;0.10;0.10;;;16.80;99.90;;;;;;5090178;28;20044;-68
2022/07/11 06:11:38;;;;;;;0.00;0.00;;;16.90;99.90;;;;;;5083744;28;20071;-67
2022/07/11 06:14:05;;;;;;;0.00;0.00;;;16.90;99.90;;;;;;5043743;28;20041;-68
2022/07/11 06:16:31;;;;;;;0.10;0.10;;;16.90;99.90;;;;;;5075817;28;20097;-67
2022/07/11 06:18:58;;;;;;;0.05;0.05;;;16.90;99.90;;;;;;5070033;28;20136;-67
2022/07/11 06:21:27;;;;;;;0.10;0.10;;;17.00;99.90;;;;;;5069489;28;20116;-67
2022/07/11 06:23:53;;;;;;;0.00;0.00;;;17.00;99.90;;;;;;5068146;28;20492;-67
2022/07/11 06:26:19;;;;;;;0.03;0.03;;;17.10;99.90;;;;;;5079459;28;20380;-67
2022/07/11 06:28:44;;;;;;;0.00;0.00;;;17.10;99.90;;;;;;5054122;28;20056;-67
2022/07/11 06:31:10;;;;;;;0.00;0.00;;;17.00;99.90;;;;;;5033034;28;20136;-68
2022/07/11 06:33:36;;;;;;;0.00;0.00;;;17.10;99.90;;;;;;5050146;28;20121;-68
2022/07/11 06:36:03;;;;;;;0.03;0.03;;;17.20;99.90;;;;;;5059019;28;20487;-67
2022/07/11 06:38:29;;;;;;;0.30;0.30;;;17.20;99.90;;;;;;5072077;28;20048;-68
2022/07/11 06:40:55;;;;;;;0.10;0.10;;;17.20;99.90;;;;;;5061839;28;20093;-68
2022/07/11 06:43:21;;;;;;;0.00;0.00;;;17.20;99.90;;;;;;5069995;28;20037;-68
2022/07/11 06:45:47;;;;;;;0.00;0.00;;;17.20;99.90;;;;;;5060751;28;20051;-67
2022/07/11 06:48:13;;;;;;;0.00;0.00;;;17.30;99.90;;;;;;5059321;28;20051;-67
2022/07/11 06:50:39;;;;;;;0.00;0.00;;;17.30;99.90;;;;;;5053174;28;20044;-68
2022/07/11 06:53:05;;;;;;;0.10;0.10;;;17.30;99.90;;;;;;5083701;28;20056;-67
2022/07/11 06:55:32;;;;;;;0.10;0.10;;;17.20;99.90;;;;;;5064313;28;20458;-68
2022/07/11 06:57:58;;;;;;;0.10;0.10;;;17.30;99.90;;;;;;5075808;28;20557;-68
2022/07/11 07:00:23;;;;;;;0.00;0.00;;;17.30;99.90;;;;;;5070815;28;20044;-68
2022/07/11 07:02:49;;;;;;;0.08;0.08;;;17.30;99.90;;;;;;5074140;28;20040;-68
2022/07/11 07:05:15;;;;;;;0.00;0.00;;;17.40;99.90;;;;;;5068556;28;20071;-67
2022/07/11 07:07:41;;;;;;;0.00;0.00;;;17.40;99.90;;;;;;5069229;28;20063;-67
2022/07/11 07:10:07;;;;;;;0.00;0.00;;;17.40;99.90;;;;;;5070134;28;20049;-67
2022/07/11 07:12:37;;;;;;;0.00;0.00;;;17.50;99.90;;;;;;5069629;28;20049;-67
2022/07/11 07:15:04;;;;;;;0.00;0.00;;;17.60;99.90;;;;;;5067284;28;20043;-67
2022/07/11 07:17:30;;;;;;;0.00;0.00;;;17.70;99.90;;;;;;5088798;28;20407;-67
2022/07/11 07:19:55;;;;;;;0.00;0.00;;;17.80;99.90;;;;;;5090167;28;20052;-68
2022/07/11 07:22:21;;;;;;;0.00;0.00;;;17.80;99.90;;;;;;5086567;28;20048;-67
2022/07/11 07:24:46;;;;;;;0.00;0.00;;;17.90;99.90;;;;;;5090283;28;20048;-68
2022/07/11 07:27:12;;;;;;;0.00;0.00;;;18.00;99.90;;;;;;5093211;28;20052;-68
2022/07/11 07:29:38;;;;;;;0.00;0.00;;;18.00;99.90;;;;;;5065753;28;20033;-68
2022/07/11 07:32:05;;;;;;;0.00;0.00;;;17.90;99.90;;;;;;5062350;28;20090;-68
2022/07/11 07:34:30;;;;;;;0.00;0.00;;;17.90;99.90;;;;;;5091034;28;20491;-67
2022/07/11 07:36:56;;;;;;;0.00;0.00;;;17.90;99.90;;;;;;5093347;28;20047;-67
2022/07/11 07:39:21;;;;;;;0.00;0.00;;;18.10;99.90;;;;;;5083929;28;20040;-68
2022/07/11 07:41:47;;;;;;;0.00;0.00;;;18.10;99.90;;;;;;5085753;28;20449;-68
2022/07/11 07:44:12;;;;;;;0.00;0.00;;;18.10;99.90;;;;;;5092179;28;20483;-68
2022/07/11 07:46:38;;;;;;;0.00;0.00;;;18.10;99.90;;;;;;5093273;28;20549;-67
2022/07/11 07:49:03;;;;;;;0.00;0.00;;;18.20;99.90;;;;;;5089255;28;20426;-67
2022/07/11 07:51:29;;;;;;;0.00;0.00;;;18.20;99.90;;;;;;5092389;28;20403;-67
2022/07/11 07:53:55;;;;;;;0.00;0.00;;;18.20;99.90;;;;;;5093639;28;20040;-67
2022/07/11 07:56:21;;;;;;;0.00;0.00;;;18.10;99.90;;;;;;5090093;28;20051;-68
2022/07/11 07:58:47;;;;;;;0.00;0.00;;;18.10;99.90;;;;;;5091050;28;20044;-67
2022/07/11 08:03:56;;;;;;;0.00;0.00;;;18.00;99.90;;;;;;5016188;28;20042;-68
2022/07/11 08:06:23;;;;;;;0.05;0.05;;;18.00;99.90;;;;;;5036670;28;20405;-67
2022/07/11 08:08:49;;;;;;;0.00;0.00;;;18.00;99.90;;;;;;5053139;28;20131;-68
2022/07/11 08:11:16;;;;;;;0.00;0.00;;;18.10;99.90;;;;;;5052514;28;20063;-68
2022/07/11 08:13:42;;;;;;;0.00;0.00;;;18.10;99.90;;;;;;5050349;28;20048;-68
2022/07/11 08:16:07;;;;;;;0.00;0.00;;;18.20;99.90;;;;;;5044560;28;20041;-68
2022/07/11 08:18:33;;;;;;;0.00;0.00;;;18.30;99.90;;;;;;5032513;28;20099;-67
2022/07/11 08:20:59;;;;;;;0.00;0.00;;;18.40;99.90;;;;;;5032578;28;20443;-68
2022/07/11 08:23:25;;;;;;;0.47;0.47;;;18.50;99.90;;;;;;5052512;28;20075;-68
2022/07/11 08:25:51;;;;;;;0.00;0.00;;;18.50;99.90;;;;;;5051286;28;20037;-68
2022/07/11 08:28:17;;;;;;;0.00;0.00;;;18.50;99.90;;;;;;5052610;28;20075;-68
2022/07/11 08:30:43;;;;;;;0.00;0.00;;;18.60;99.90;;;;;;5043820;28;20370;-68
2022/07/11 08:33:08;;;;;;;0.00;0.00;;;18.70;99.90;;;;;;5048519;28;20048;-68
2022/07/11 08:35:34;;;;;;;0.00;0.00;;;18.80;99.90;;;;;;5032387;28;20033;-68
2022/07/11 08:37:59;;;;;;;0.00;0.00;;;18.80;99.90;;;;;;5032043;28;20033;-68
2022/07/11 08:40:25;;;;;;;0.00;0.00;;;18.70;99.90;;;;;;5030836;28;20481;-68
2022/07/11 08:42:51;;;;;;;0.00;0.00;;;18.60;99.90;;;;;;5015898;28;20498;-68
2022/07/11 08:45:17;;;;;;;0.00;0.00;;;18.60;99.90;;;;;;5011452;28;20414;-68
2022/07/11 08:47:44;;;;;;;0.00;0.00;;;18.60;99.90;;;;;;5012682;28;20050;-68
2022/07/11 08:50:11;;;;;;;0.52;0.52;;;18.60;99.90;;;;;;5030122;28;20389;-68
2022/07/11 08:52:37;;;;;;;0.00;0.00;;;18.60;99.90;;;;;;5013924;28;20088;-68
2022/07/11 08:55:07;;;;;;;0.00;0.00;;;18.70;99.90;;;;;;5036990;28;20076;-68
2022/07/11 08:57:35;;;;;;;0.00;0.00;;;18.70;99.90;;;;;;5052579;28;20464;-68
2022/07/11 09:00:01;;;;;;;0.00;0.00;;;18.70;99.90;;;;;;5042768;28;20034;-68
2022/07/11 09:02:29;;;;;;;0.00;0.00;;;18.80;99.90;;;;;;5051336;28;20584;-68
2022/07/11 09:04:55;;;;;;;0.00;0.00;;;19.00;99.90;;;;;;5054359;28;20053;-68
2022/07/11 09:07:21;;;;;;;0.00;0.00;;;19.10;99.90;;;;;;5071583;28;20055;-68
2022/07/11 09:09:46;;;;;;;0.00;0.00;;;19.10;99.90;;;;;;5068326;28;20408;-68
2022/07/11 09:12:15;;;;;;;0.00;0.00;;;19.10;99.90;;;;;;5073612;28;20044;-68
2022/07/11 09:14:46;;;;;;;0.00;0.00;;;19.00;99.90;;;;;;5091719;28;20126;-68
2022/07/11 09:17:12;;;;;;;0.00;0.00;;;19.00;99.90;;;;;;5079813;28;20043;-68
2022/07/11 09:19:39;;;;;;;0.00;0.00;;;18.80;99.90;;;;;;5091857;28;20506;-68
2022/07/11 09:27:53;;;;;;;0.00;0.00;;;18.70;99.90;;;;;;5091764;28;20403;-68
2022/07/11 09:30:30;;;;;;;0.00;0.00;;;18.70;99.90;;;;;;5091336;28;20450;-68
2022/07/11 09:33:00;;;;;;;0.00;0.00;;;18.70;99.90;;;;;;5089716;28;20043;-68
2022/07/11 09:35:37;;;;;;;0.00;0.00;;;18.70;99.90;;;;;;5091019;28;20044;-68
2022/07/11 09:38:04;;;;;;;0.00;0.00;;;18.80;99.90;;;;;;5054570;28;20051;-68
2022/07/11 09:40:30;;;;;;;0.00;0.00;;;18.80;99.90;;;;;;5091280;28;20044;-68
2022/07/11 09:42:57;;;;;;;0.05;0.05;;;18.80;99.90;;;;;;5053337;28;20144;-68
2022/07/11 09:45:33;;;;;;;0.00;0.00;;;18.80;99.90;;;;;;5076608;28;20044;-68
2022/07/11 09:48:07;;;;;;;0.00;0.00;;;19.00;99.90;;;;;;5091241;28;20036;-68
2022/07/11 09:50:33;;;;;;;0.00;0.00;;;19.20;99.90;;;;;;5089706;28;20089;-68
2022/07/11 09:53:10;;;;;;;0.00;0.00;;;19.30;99.90;;;;;;5033460;28;20439;-68
2022/07/11 09:55:38;;;;;;;0.00;0.00;;;19.30;99.90;;;;;;5088073;28;20048;-68
2022/07/11 09:58:09;;;;;;;0.00;0.00;;;19.30;99.90;;;;;;5090750;28;20043;-68
2022/07/11 10:00:37;;;;;;;0.00;0.00;;;19.30;99.90;;;;;;5069723;28;20076;-68
2022/07/11 10:03:03;;;;;;;0.00;0.00;;;19.30;99.90;;;;;;5090219;28;20052;-68
2022/07/11 10:05:30;;;;;;;0.00;0.00;;;19.20;99.90;;;;;;5091487;28;20084;-68
2022/07/11 10:07:57;;;;;;;0.00;0.00;;;19.20;99.90;;;;;;5078149;28;20051;-68
2022/07/11 10:10:23;;;;;;;0.00;0.00;;;19.20;99.90;;;;;;5086159;28;20065;-68
2022/07/11 10:12:51;;;;;;;0.00;0.00;;;19.30;99.90;;;;;;5073315;28;20048;-68
2022/07/11 10:15:38;;;;;;;0.00;0.00;;;19.40;99.90;;;;;;5069148;28;20105;-68
2022/07/11 10:18:18;;;;;;;0.00;0.00;;;19.40;99.90;;;;;;5070279;28;20097;-68
2022/07/11 10:21:14;;;;;;;0.00;0.00;;;19.40;99.90;;;;;;5068875;28;20790;-68
2022/07/11 10:24:11;;;;;;;0.00;0.00;;;19.40;99.90;;;;;;5060453;28;20045;-68
2022/07/11 10:27:07;;;;;;;0.03;0.03;;;19.60;99.90;;;;;;5032695;28;20087;-68
2022/07/11 10:29:42;;;;;;;0.00;0.00;;;19.60;99.90;;;;;;5026607;28;20056;-68
2022/07/11 10:32:10;;;;;;;0.00;0.00;;;19.50;99.90;;;;;;5081549;28;20097;-68
2022/07/11 10:34:35;;;;;;;0.00;0.00;;;19.50;99.90;;;;;;5090296;28;20059;-68
2022/07/11 10:37:04;;;;;;;0.00;0.00;;;19.60;99.90;;;;;;5090594;28;20505;-68
2022/07/11 10:39:30;;;;;;;0.00;0.00;;;19.80;99.90;;;;;;5087265;28;20039;-68
2022/07/11 10:41:57;;;;;;;0.00;0.00;;;20.10;99.90;;;;;;5082165;28;20032;-68
2022/07/11 10:44:24;;;;;;;0.00;0.00;;;20.30;99.90;;;;;;5070439;28;20105;-68
2022/07/11 10:46:51;;;;;;;0.00;0.00;;;20.10;99.90;;;;;;5080726;28;20044;-68
2022/07/11 10:49:20;;;;;;;0.00;0.00;;;20.20;99.90;;;;;;5090095;28;20083;-68
2022/07/11 10:52:06;;;;;;;0.05;0.05;;;20.20;99.90;;;;;;5079812;28;20079;-68
2022/07/11 10:54:56;;;;;;;0.00;0.00;;;20.10;99.90;;;;;;5063842;28;20053;-68
2022/07/11 10:57:40;;;;;;;0.00;0.00;;;20.00;99.90;;;;;;5049391;28;20144;-68
2022/07/11 11:00:10;;;;;;;0.00;0.00;;;20.00;99.90;;;;;;5041737;28;20086;-68
2022/07/11 11:03:07;;;;;;;0.03;0.03;;;19.90;99.90;;;;;;5089302;28;20583;-68
2022/07/11 11:05:47;;;;;;;0.00;0.00;;;19.80;99.90;;;;;;5071866;28;20055;-68
2022/07/11 11:08:40;;;;;;;0.00;0.00;;;19.80;99.90;;;;;;5087171;28;20079;-68
2022/07/11 11:11:07;;;;;;;0.00;0.00;;;19.90;99.90;;;;;;5089504;28;20044;-68
2022/07/11 11:13:38;;;;;;;0.00;0.00;;;19.90;99.90;;;;;;5071317;28;20587;-69
2022/07/11 11:16:22;;;;;;;0.00;0.00;;;20.00;99.90;;;;;;5082442;28;20040;-68
2022/07/11 11:18:48;;;;;;;0.00;0.00;;;20.00;99.90;;;;;;5077334;28;20847;-68
2022/07/11 11:21:15;;;;;;;0.00;0.00;;;20.00;99.90;;;;;;5063452;28;20127;-68
2022/07/11 11:23:43;;;;;;;0.00;0.00;;;19.90;99.90;;;;;;5081020;28;20044;-68
2022/07/11 11:26:11;;;;;;;0.00;0.00;;;19.90;99.90;;;;;;5087172;28;20119;-68
2022/07/11 11:28:38;;;;;;;3.95;0.20;;;19.90;99.90;;;;;;5089205;28;20040;-68
2022/07/11 11:31:07;;;;;;;0.00;0.00;;;19.90;99.90;;;;;;5071481;28;20052;-69
2022/07/11 11:33:35;;;;;;;0.00;0.00;;;19.90;99.90;;;;;;5071653;28;20129;-68
2022/07/11 11:36:09;;;;;;;0.00;0.00;;;19.80;99.90;;;;;;5070341;28;20577;-69
2022/07/11 11:38:40;;;;;;;0.00;0.00;;;19.90;99.90;;;;;;5089622;28;20121;-68
2022/07/11 11:41:07;;;;;;;0.00;0.00;;;19.90;99.90;;;;;;5088576;28;20036;-68
2022/07/11 11:43:33;;;;;;;0.00;0.00;;;19.90;99.90;;;;;;5064900;28;20055;-68
2022/07/11 11:45:59;;;;;;;0.00;0.00;;;20.00;99.90;;;;;;5089181;28;20395;-68
2022/07/11 11:48:32;;;;;;;0.00;0.00;;;20.00;99.90;;;;;;5088843;28;20040;-68
2022/07/11 11:51:15;;;;;;;0.00;0.00;;;20.00;99.90;;;;;;5078343;28;20196;-68
2022/07/11 11:53:50;;;;;;;0.00;0.00;;;20.10;99.90;;;;;;5076419;28;20047;-68
2022/07/11 11:56:29;;;;;;;0.00;0.00;;;20.00;99.90;;;;;;5069103;28;20123;-68
2022/07/11 11:59:07;;;;;;;0.00;0.00;;;20.00;99.90;;;;;;5050159;28;20123;-68
2022/07/11 12:01:37;;;;;;;0.00;0.00;;;19.90;99.90;;;;;;5067147;28;20127;-69
2022/07/11 12:04:09;;;;;;;0.00;0.00;;;19.90;99.90;;;;;;5068897;28;20079;-68
2022/07/11 12:06:37;;;;;;;0.00;0.00;;;20.00;99.90;;;;;;5069243;28;20064;-68
2022/07/11 12:09:04;;;;;;;0.00;0.00;;;20.00;99.90;;;;;;5077335;28;20052;-68
2022/07/11 12:11:31;;;;;;;0.00;0.00;;;19.90;99.90;;;;;;5070820;28;20040;-68
2022/07/11 12:14:05;;;;;;;0.73;0.52;;;20.00;99.90;;;;;;5068773;28;20040;-68
2022/07/11 12:16:39;;;;;;;0.00;0.00;;;20.10;99.90;;;;;;5043165;28;20059;-68
2022/07/11 12:19:09;;;;;;;0.00;0.00;;;20.10;99.90;;;;;;5085583;28;20132;-68
2022/07/11 12:21:36;;;;;;;0.25;0.25;;;20.10;99.90;;;;;;5090583;28;20552;-68
2022/07/11 12:24:04;;;;;;;0.00;0.00;;;20.10;99.90;;;;;;5073987;28;20052;-68
2022/07/11 12:26:33;;;;;;;0.00;0.00;;;20.10;99.90;;;;;;5092967;28;20131;-68
2022/07/11 12:29:20;;;;;;;0.10;0.10;;;20.10;99.90;;;;;;5089859;28;20556;-68
2022/07/11 12:31:48;;;;;;;0.00;0.00;;;20.10;99.90;;;;;;5074460;28;20054;-68
2022/07/11 12:34:21;;;;;;;0.00;0.00;;;20.10;99.90;;;;;;5062232;28;20051;-68
2022/07/11 12:36:47;;;;;;;0.05;0.05;;;20.10;99.90;;;;;;5088693;28;20048;-68
2022/07/11 12:39:25;;;;;;;0.00;0.00;;;20.10;99.90;;;;;;5089671;28;20097;-68
2022/07/11 12:41:53;;;;;;;0.00;0.00;;;20.10;99.90;;;;;;5085179;28;20062;-68
2022/07/11 12:47:16;;;;;;;0.00;0.00;;;20.20;99.90;;;;;;5081006;28;20051;-68
2022/07/11 12:49:45;;;;;;;0.00;0.00;;;20.10;99.90;;;;;;5073718;28;20123;-68
2022/07/11 12:52:12;;;;;;;0.30;0.20;;;20.30;99.90;;;;;;5066935;28;20051;-68
2022/07/11 12:54:39;;;;;;;0.00;0.00;;;20.30;99.90;;;;;;5089923;28;20055;-69
2022/07/11 12:57:06;;;;;;;0.00;0.00;;;20.30;99.90;;;;;;5091900;28;20071;-68
2022/07/11 12:59:33;;;;;;;0.00;0.00;;;20.40;99.90;;;;;;5088837;28;20051;-68
2022/07/11 13:02:03;;;;;;;0.00;0.00;;;20.40;99.90;;;;;;5085411;28;20582;-68